Time;durP1;ratioP1;P1;durP2;ratioP2;P2;SDS_P1;SDS_P2;PMS_P1;PMS_P2;Temp;Humidity;BMP_temperature;BMP_pressure;BME280_temperature;BME280_humidity;BME280_pressure;Samples;Min_cycle;Max_cycle;Signal;HPM_P1;HPM_P2
2022/11/29 00:01:47;;;;;;;;;;;5.80;99.90;;;;;;12358108;28;19927;-37
2022/11/29 00:07:48;;;;;;;;;;;5.80;99.90;;;;;;12351838;28;19929;-37
2022/11/29 00:13:50;;;;;;;;;;;5.90;99.90;;;;;;12372350;28;19951;-37
2022/11/29 00:19:52;;;;;;;;;;;5.80;99.90;;;;;;12370267;28;20009;-37
2022/11/29 00:25:54;;;;;;;;;;;5.80;99.90;;;;;;12378698;28;20382;-37
2022/11/29 00:31:56;;;;;;;;;;;5.90;99.90;;;;;;12381892;28;19937;-37
2022/11/29 00:37:57;;;;;;;;;;;5.80;99.90;;;;;;12362636;28;19933;-37
2022/11/29 00:43:59;;;;;;;;;;;5.80;99.90;;;;;;12374173;28;20004;-37
2022/11/29 00:50:01;;;;;;;;;;;5.80;99.90;;;;;;12372167;28;19957;-37
2022/11/29 00:56:03;;;;;;;;;;;5.80;99.90;;;;;;12400685;28;19925;-37
2022/11/29 01:02:05;;;;;;;;;;;5.80;99.90;;;;;;12431533;28;20301;-37
2022/11/29 01:08:07;;;;;;;;;;;5.80;99.90;;;;;;12427231;28;19925;-37
2022/11/29 01:14:10;;;;;;;;;;;5.80;99.90;;;;;;12395455;28;20406;-37
2022/11/29 01:20:12;;;;;;;;;;;5.80;99.90;;;;;;12378267;28;19942;-37
2022/11/29 01:26:16;;;;;;;;;;;5.80;99.90;;;;;;12386332;28;19926;-37
2022/11/29 01:32:17;;;;;;;;;;;5.80;99.90;;;;;;12388597;28;19937;-37
2022/11/29 01:38:20;;;;;;;;;;;5.80;99.90;;;;;;12369107;28;20043;-38
2022/11/29 01:44:21;;;;;;;;;;;5.90;99.90;;;;;;12387367;28;20286;-37
2022/11/29 01:50:23;;;;;;;;;;;5.80;99.90;;;;;;12386094;28;20275;-37
2022/11/29 01:56:26;;;;;;;;;;;5.80;99.90;;;;;;12386192;28;19929;-37
2022/11/29 02:02:34;;;;;;;;;;;5.80;99.90;;;;;;12401866;28;20305;-37
2022/11/29 02:08:38;;;;;;;;;;;5.90;99.90;;;;;;12377167;28;20381;-37
2022/11/29 02:14:42;;;;;;;;;;;5.80;99.90;;;;;;12380293;28;19929;-37
2022/11/29 02:20:51;;;;;;;;;;;5.90;99.90;;;;;;12398980;28;19929;-37
2022/11/29 02:27:19;;;;;;;;;;;5.90;99.90;;;;;;12397282;28;20366;-37
2022/11/29 02:33:28;;;;;;;;;;;5.90;99.90;;;;;;12374223;28;19926;-37
2022/11/29 02:39:39;;;;;;;;;;;5.90;99.90;;;;;;12412710;28;20067;-37
2022/11/29 02:45:57;;;;;;;;;;;5.90;99.90;;;;;;12390389;28;19933;-37
2022/11/29 02:52:00;;;;;;;;;;;5.90;99.90;;;;;;12402448;28;19933;-37
2022/11/29 02:58:08;;;;;;;;;;;5.90;99.90;;;;;;12381431;28;20393;-37
2022/11/29 03:04:27;;;;;;;;;;;5.90;99.90;;;;;;12391329;28;19925;-37
2022/11/29 03:10:37;;;;;;;;;;;5.90;99.90;;;;;;12395032;28;19926;-37
2022/11/29 03:16:54;;;;;;;;;;;5.90;99.90;;;;;;12377860;28;20289;-37
2022/11/29 03:23:11;;;;;;;;;;;5.90;99.90;;;;;;12383653;28;19934;-37
2022/11/29 03:29:22;;;;;;;;;;;5.90;99.90;;;;;;12381370;28;19926;-37
2022/11/29 03:35:29;;;;;;;;;;;5.90;99.90;;;;;;12385205;28;20076;-37
2022/11/29 03:41:50;;;;;;;;;;;5.90;99.90;;;;;;12370537;28;19927;-37
2022/11/29 03:47:55;;;;;;;;;;;6.00;99.90;;;;;;12373385;28;19926;-37
2022/11/29 03:54:00;;;;;;;;;;;6.00;99.90;;;;;;12381512;28;20013;-38
2022/11/29 04:00:08;;;;;;;;;;;6.00;99.90;;;;;;12381445;28;19925;-37
2022/11/29 04:06:20;;;;;;;;;;;5.90;99.90;;;;;;12353766;28;19930;-37
2022/11/29 04:12:33;;;;;;;;;;;6.00;99.90;;;;;;12336640;28;20347;-37
2022/11/29 04:18:35;;;;;;;;;;;5.90;99.90;;;;;;12343375;28;19929;-37
2022/11/29 04:25:06;;;;;;;;;;;6.00;99.90;;;;;;12336520;28;19934;-37
2022/11/29 04:31:08;;;;;;;;;;;5.90;99.90;;;;;;12345232;28;20283;-37
2022/11/29 04:37:25;;;;;;;;;;;5.90;99.90;;;;;;12327112;28;19949;-37
2022/11/29 04:43:34;;;;;;;;;;;6.00;99.90;;;;;;12309209;28;19931;-37
2022/11/29 04:49:55;;;;;;;;;;;6.00;99.90;;;;;;12320538;28;19926;-37
2022/11/29 04:56:03;;;;;;;;;;;6.00;99.90;;;;;;12327051;28;19930;-37
2022/11/29 05:02:24;;;;;;;;;;;6.00;99.90;;;;;;12323629;28;19926;-37
2022/11/29 05:08:42;;;;;;;;;;;6.00;99.90;;;;;;12321996;28;20237;-37
2022/11/29 05:14:58;;;;;;;;;;;5.90;99.90;;;;;;12361081;28;19925;-37
2022/11/29 05:21:19;;;;;;;;;;;6.10;99.90;;;;;;12362205;28;19926;-37
2022/11/29 05:27:41;;;;;;;;;;;6.00;99.90;;;;;;12405761;28;20370;-37
2022/11/29 05:33:45;;;;;;;;;;;6.00;99.90;;;;;;12377421;28;19937;-37
2022/11/29 05:40:06;;;;;;;;;;;6.00;99.90;;;;;;12386409;28;19934;-37
2022/11/29 05:46:13;;;;;;;;;;;6.00;99.90;;;;;;12334404;28;20461;-37
2022/11/29 05:52:24;;;;;;;;;;;6.00;99.90;;;;;;12351522;28;19935;-37
2022/11/29 05:58:35;;;;;;;;;;;6.00;99.90;;;;;;12341687;28;20024;-37
2022/11/29 06:04:56;;;;;;;;;;;6.00;99.90;;;;;;12373893;28;19925;-38
2022/11/29 06:11:11;;;;;;;;;;;6.00;99.90;;;;;;12448080;28;19934;-37
2022/11/29 06:17:31;;;;;;;;;;;6.00;99.90;;;;;;12419611;28;20038;-37
2022/11/29 06:23:49;;;;;;;;;;;6.00;99.90;;;;;;12416348;28;19932;-37
2022/11/29 06:29:58;;;;;;;;;;;6.00;99.90;;;;;;12430169;28;20004;-38
2022/11/29 06:36:12;;;;;;;;;;;6.00;99.90;;;;;;12388476;28;19930;-38
2022/11/29 06:42:14;;;;;;;;;;;6.00;99.90;;;;;;12381605;28;20393;-37
2022/11/29 06:48:20;;;;;;;;;;;6.10;99.90;;;;;;12384736;28;19933;-37
2022/11/29 06:54:22;;;;;;;;;;;6.00;99.90;;;;;;12374880;28;19930;-37
2022/11/29 07:00:25;;;;;;;;;;;6.10;99.90;;;;;;12379140;28;20274;-37
2022/11/29 07:06:28;;;;;;;;;;;6.10;99.90;;;;;;12416839;28;19937;-37
2022/11/29 07:12:29;;;;;;;;;;;6.00;99.90;;;;;;12414353;28;20411;-38
2022/11/29 07:19:00;;;;;;;;;;;6.10;99.90;;;;;;12495103;23;20295;-86
2022/11/29 07:31:15;;;;;;;;;;;6.10;99.90;;;;;;12342457;28;19933;-39
2022/11/29 07:37:17;;;;;;;;;;;6.10;99.90;;;;;;12347371;28;19934;-39
2022/11/29 07:43:22;;;;;;;;;;;6.00;99.90;;;;;;12341663;28;19926;-38
2022/11/29 07:49:24;;;;;;;;;;;6.00;99.90;;;;;;12340971;28;20393;-38
2022/11/29 07:55:25;;;;;;;;;;;6.10;99.90;;;;;;12343650;28;19930;-39
2022/11/29 08:01:27;;;;;;;;;;;6.10;99.90;;;;;;12341769;28;20012;-39
2022/11/29 08:07:29;;;;;;;;;;;6.10;99.90;;;;;;12341916;28;20302;-39
2022/11/29 08:13:31;;;;;;;;;;;6.10;99.90;;;;;;12343595;28;19933;-39
2022/11/29 08:19:32;;;;;;;;;;;6.10;99.90;;;;;;12331957;28;19953;-38
2022/11/29 08:25:34;;;;;;;;;;;6.20;99.90;;;;;;12341285;28;20382;-38
2022/11/29 08:31:36;;;;;;;;;;;6.20;99.90;;;;;;12343936;28;20408;-39
2022/11/29 08:37:38;;;;;;;;;;;6.30;99.90;;;;;;12343056;28;19934;-38
2022/11/29 08:43:40;;;;;;;;;;;6.30;99.90;;;;;;12321556;28;19926;-38
2022/11/29 08:56:02;;;;;;;;;;;6.30;99.90;;;;;;12329745;28;20378;-39
2022/11/29 09:02:24;;;;;;;;;;;6.40;99.90;;;;;;12342441;28;19942;-38
2022/11/29 09:08:28;;;;;;;;;;;6.40;99.90;;;;;;12338265;28;21260;-39
2022/11/29 09:14:30;;;;;;;;;;;6.50;99.90;;;;;;12336265;28;19934;-38
2022/11/29 09:20:32;;;;;;;;;;;6.50;99.90;;;;;;12343812;28;19926;-38
2022/11/29 09:26:35;;;;;;;;;;;6.60;99.90;;;;;;12333677;28;19926;-39
2022/11/29 09:32:37;;;;;;;;;;;6.70;99.90;;;;;;12341081;28;19926;-39
2022/11/29 09:38:39;;;;;;;;;;;6.70;99.90;;;;;;12339293;28;20321;-39
2022/11/29 09:44:50;;;;;;;;;;;6.80;99.90;;;;;;12338644;28;19933;-39
2022/11/29 09:51:10;;;;;;;;;;;6.70;99.90;;;;;;12342795;28;20298;-39
2022/11/29 09:57:12;;;;;;;;;;;6.80;99.90;;;;;;12338246;28;19930;-39
2022/11/29 10:03:22;;;;;;;;;;;6.90;99.90;;;;;;12341519;28;20029;-38
2022/11/29 10:09:29;;;;;;;;;;;6.90;99.90;;;;;;12345387;28;19926;-38
2022/11/29 10:15:38;;;;;;;;;;;7.00;99.90;;;;;;12345212;28;20045;-38
2022/11/29 10:21:42;;;;;;;;;;;7.00;99.90;;;;;;12347714;28;19926;-39
2022/11/29 10:27:43;;;;;;;;;;;7.00;99.90;;;;;;12349239;28;19953;-38
2022/11/29 10:33:45;;;;;;;;;;;7.10;99.90;;;;;;12345056;28;19930;-38
2022/11/29 10:39:57;;;;;;;;;;;7.10;99.90;;;;;;12338991;28;19926;-37
2022/11/29 10:46:01;;;;;;;;;;;7.20;99.90;;;;;;12330778;28;19937;-37
2022/11/29 10:52:02;;;;;;;;;;;7.10;99.90;;;;;;12335039;28;19926;-36
2022/11/29 10:58:08;;;;;;;;;;;7.20;99.90;;;;;;12339366;28;19926;-36
2022/11/29 11:04:14;;;;;;;;;;;7.20;99.90;;;;;;12318997;28;19934;-37
2022/11/29 11:10:20;;;;;;;;;;;7.20;99.90;;;;;;12336809;28;19934;-37
2022/11/29 11:16:23;;;;;;;;;;;7.30;99.90;;;;;;12331328;28;19930;-37
2022/11/29 11:22:25;;;;;;;;;;;7.30;99.90;;;;;;12331504;28;19933;-37
2022/11/29 11:28:29;;;;;;;;;;;7.40;99.90;;;;;;12334710;28;20297;-36
2022/11/29 11:34:36;;;;;;;;;;;7.40;99.90;;;;;;12333072;28;19926;-37
2022/11/29 11:40:38;;;;;;;;;;;7.50;99.90;;;;;;12330167;28;20254;-37
2022/11/29 11:46:48;;;;;;;;;;;7.50;99.90;;;;;;12327817;28;19933;-37
2022/11/29 11:52:54;;;;;;;;;;;7.60;99.90;;;;;;12328792;28;19976;-36
2022/11/29 11:58:56;;;;;;;;;;;7.60;99.90;;;;;;12319841;28;19930;-37
2022/11/29 12:04:59;;;;;;;;;;;7.60;99.90;;;;;;12318200;28;20313;-37
2022/11/29 12:11:03;;;;;;;;;;;7.70;99.90;;;;;;12319744;28;19943;-37
2022/11/29 12:17:14;;;;;;;;;;;7.60;99.90;;;;;;12332611;28;19926;-37
2022/11/29 12:23:25;;;;;;;;;;;7.60;99.90;;;;;;12317619;28;19969;-37
2022/11/29 12:29:28;;;;;;;;;;;7.60;99.90;;;;;;12331002;28;20370;-36
2022/11/29 12:35:38;;;;;;;;;;;7.60;99.90;;;;;;12332646;28;19934;-37
2022/11/29 12:41:58;;;;;;;;;;;7.60;99.90;;;;;;12333397;28;19926;-37
2022/11/29 12:48:04;;;;;;;;;;;7.60;99.90;;;;;;12326011;28;19933;-37
2022/11/29 12:54:32;;;;;;;;;;;7.60;99.90;;;;;;12327400;28;19941;-37
2022/11/29 13:00:40;;;;;;;;;;;7.80;99.90;;;;;;12293287;28;19937;-37
2022/11/29 13:06:44;;;;;;;;;;;7.90;99.90;;;;;;12334995;28;19926;-37
2022/11/29 13:13:07;;;;;;;;;;;7.90;99.90;;;;;;12322779;28;20301;-36
2022/11/29 13:19:22;;;;;;;;;;;8.00;99.90;;;;;;12322726;28;19933;-37
2022/11/29 13:25:29;;;;;;;;;;;7.90;99.90;;;;;;12327911;28;19926;-37
2022/11/29 13:31:31;;;;;;;;;;;7.90;99.90;;;;;;12324223;28;19933;-37
2022/11/29 13:37:41;;;;;;;;;;;7.80;99.90;;;;;;12323682;28;19926;-37
2022/11/29 13:44:03;;;;;;;;;;;7.80;99.90;;;;;;12329688;28;19926;-37
2022/11/29 13:50:06;;;;;;;;;;;7.80;99.90;;;;;;12334479;28;19932;-37
2022/11/29 13:56:23;;;;;;;;;;;7.70;99.90;;;;;;12309869;28;19935;-37
2022/11/29 14:02:27;;;;;;;;;;;7.70;99.90;;;;;;12333178;28;19933;-36
2022/11/29 14:08:38;;;;;;;;;;;7.70;99.90;;;;;;12330960;28;20275;-37
2022/11/29 14:15:01;;;;;;;;;;;7.80;99.90;;;;;;12324937;28;19965;-37
2022/11/29 14:21:03;;;;;;;;;;;7.70;99.90;;;;;;12337955;28;19973;-37
2022/11/29 14:27:05;;;;;;;;;;;7.70;99.90;;;;;;12335961;28;20452;-37
2022/11/29 14:33:18;;;;;;;;;;;7.70;99.90;;;;;;12330489;28;19934;-37
2022/11/29 14:39:26;;;;;;;;;;;7.70;99.90;;;;;;12333070;28;20025;-37
2022/11/29 14:45:30;;;;;;;;;;;7.80;99.90;;;;;;12319094;28;19977;-37
2022/11/29 14:51:32;;;;;;;;;;;7.60;99.90;;;;;;12336704;28;20289;-37
2022/11/29 14:57:46;;;;;;;;;;;7.70;99.90;;;;;;12329518;28;19926;-37
2022/11/29 15:03:48;;;;;;;;;;;7.70;99.90;;;;;;12335118;28;19933;-37
2022/11/29 15:09:51;;;;;;;;;;;7.70;99.90;;;;;;12323503;28;19937;-37
2022/11/29 15:15:53;;;;;;;;;;;7.70;99.90;;;;;;12323476;28;19937;-37
2022/11/29 15:22:14;;;;;;;;;;;7.60;99.90;;;;;;12331862;28;19926;-36
2022/11/29 15:28:23;;;;;;;;;;;7.70;99.90;;;;;;12335857;28;20314;-37
2022/11/29 15:34:33;;;;;;;;;;;7.60;99.90;;;;;;12336806;28;19926;-37
2022/11/29 15:40:40;;;;;;;;;;;7.60;99.90;;;;;;12324277;28;20367;-37
2022/11/29 15:46:41;;;;;;;;;;;7.60;99.90;;;;;;12324698;28;19937;-37
2022/11/29 15:52:43;;;;;;;;;;;7.70;99.90;;;;;;12329125;28;19926;-36
2022/11/29 15:58:46;;;;;;;;;;;7.60;99.90;;;;;;12323855;28;19934;-37
2022/11/29 16:04:49;;;;;;;;;;;7.60;99.90;;;;;;12321831;28;19930;-37
2022/11/29 16:10:52;;;;;;;;;;;7.60;99.90;;;;;;12333906;28;19933;-37
2022/11/29 16:16:55;;;;;;;;;;;7.50;99.90;;;;;;12337382;28;20405;-38
2022/11/29 16:23:15;;;;;;;;;;;7.50;99.90;;;;;;12331324;28;19934;-37
2022/11/29 16:29:23;;;;;;;;;;;7.50;99.90;;;;;;12340250;28;19934;-37
2022/11/29 16:35:26;;;;;;;;;;;7.50;99.90;;;;;;12334539;28;19926;-37
2022/11/29 16:41:28;;;;;;;;;;;7.50;99.90;;;;;;12329563;28;19926;-37
2022/11/29 16:48:07;;;;;;;;;;;7.60;99.90;;;;;;12331073;28;20786;-37
2022/11/29 16:54:33;;;;;;;;;;;7.50;99.90;;;;;;12338865;28;20388;-37
2022/11/29 17:00:35;;;;;;;;;;;7.60;99.90;;;;;;12331649;28;19926;-37
2022/11/29 17:06:37;;;;;;;;;;;7.60;99.90;;;;;;12335925;28;19930;-37
2022/11/29 17:12:38;;;;;;;;;;;7.50;99.90;;;;;;12337107;28;19936;-36
2022/11/29 17:18:48;;;;;;;;;;;7.50;99.90;;;;;;12330214;28;19933;-36
2022/11/29 17:24:50;;;;;;;;;;;7.60;99.90;;;;;;12335084;28;20294;-37
2022/11/29 17:30:52;;;;;;;;;;;7.60;99.90;;;;;;12333227;28;20065;-36
2022/11/29 17:36:54;;;;;;;;;;;7.50;99.90;;;;;;12332414;28;19973;-37
2022/11/29 17:42:56;;;;;;;;;;;7.60;99.90;;;;;;12325201;28;19926;-37
2022/11/29 17:48:59;;;;;;;;;;;7.50;99.90;;;;;;12332385;28;19926;-37
2022/11/29 17:55:00;;;;;;;;;;;7.50;99.90;;;;;;12336651;28;19934;-37
2022/11/29 18:01:04;;;;;;;;;;;7.60;99.90;;;;;;12342174;28;19980;-37
2022/11/29 18:07:06;;;;;;;;;;;7.50;99.90;;;;;;12340977;28;19976;-36
2022/11/29 18:13:08;;;;;;;;;;;7.50;99.90;;;;;;12329264;28;20298;-37
2022/11/29 18:19:10;;;;;;;;;;;7.50;99.90;;;;;;12332132;28;19926;-37
2022/11/29 18:25:12;;;;;;;;;;;7.50;99.90;;;;;;12329315;28;20294;-37
2022/11/29 18:31:35;;;;;;;;;;;7.50;99.90;;;;;;12345257;28;20298;-36
2022/11/29 18:37:37;;;;;;;;;;;7.40;99.90;;;;;;12350847;28;19953;-37
2022/11/29 18:44:01;;;;;;;;;;;7.40;99.90;;;;;;12330865;28;20005;-37
2022/11/29 18:50:03;;;;;;;;;;;7.40;99.90;;;;;;12338200;28;19926;-37
2022/11/29 18:56:10;;;;;;;;;;;7.40;99.90;;;;;;12287509;28;19949;-37
2022/11/29 19:02:14;;;;;;;;;;;7.40;99.90;;;;;;12337976;28;19930;-37
2022/11/29 19:08:16;;;;;;;;;;;7.40;99.90;;;;;;12343743;28;19926;-37
2022/11/29 19:14:17;;;;;;;;;;;7.40;99.90;;;;;;12341284;28;19956;-37
2022/11/29 19:20:19;;;;;;;;;;;7.30;99.90;;;;;;12341394;28;19998;-37
2022/11/29 19:26:22;;;;;;;;;;;7.40;99.90;;;;;;12338053;28;19953;-37
2022/11/29 19:32:23;;;;;;;;;;;7.40;99.90;;;;;;12343081;28;19930;-37
2022/11/29 19:38:25;;;;;;;;;;;7.40;99.90;;;;;;12343286;28;19926;-37
2022/11/29 19:44:27;;;;;;;;;;;7.40;99.90;;;;;;12325326;28;19930;-37
2022/11/29 19:50:31;;;;;;;;;;;7.40;99.90;;;;;;12338756;28;19933;-38
2022/11/29 19:56:33;;;;;;;;;;;7.30;99.90;;;;;;12341594;28;19973;-37
2022/11/29 20:02:35;;;;;;;;;;;7.40;99.90;;;;;;12341182;28;20386;-36
2022/11/29 20:08:37;;;;;;;;;;;7.40;99.90;;;;;;12340151;28;19930;-36
2022/11/29 20:14:38;;;;;;;;;;;7.50;99.90;;;;;;12338368;28;19930;-37
2022/11/29 20:20:40;;;;;;;;;;;7.50;99.90;;;;;;12333267;28;19926;-36
2022/11/29 20:26:43;;;;;;;;;;;7.40;99.90;;;;;;12342155;28;19926;-37
2022/11/29 20:32:45;;;;;;;;;;;7.40;99.90;;;;;;12338299;28;19926;-37
2022/11/29 20:38:50;;;;;;;;;;;7.40;99.90;;;;;;12340571;28;19937;-37
2022/11/29 20:44:52;;;;;;;;;;;7.40;99.90;;;;;;12316014;28;20382;-36
2022/11/29 20:50:58;;;;;;;;;;;7.40;99.90;;;;;;12340991;28;19930;-37
2022/11/29 20:57:00;;;;;;;;;;;7.40;99.90;;;;;;12338448;28;20418;-36
2022/11/29 21:03:02;;;;;;;;;;;7.40;99.90;;;;;;12324335;28;19930;-36
2022/11/29 21:09:04;;;;;;;;;;;7.50;99.90;;;;;;12336193;28;19926;-37
2022/11/29 21:15:07;;;;;;;;;;;7.50;99.90;;;;;;12334631;28;19969;-38
2022/11/29 21:21:18;;;;;;;;;;;7.40;99.90;;;;;;12329380;28;19930;-36
2022/11/29 21:27:25;;;;;;;;;;;7.40;99.90;;;;;;12330863;28;19927;-36
2022/11/29 21:33:27;;;;;;;;;;;7.30;99.90;;;;;;12334964;28;19930;-36
2022/11/29 21:39:32;;;;;;;;;;;7.40;99.90;;;;;;12340086;28;19926;-37
2022/11/29 21:45:35;;;;;;;;;;;7.40;99.90;;;;;;12332556;28;19993;-36
2022/11/29 21:51:36;;;;;;;;;;;7.30;99.90;;;;;;12337624;28;19972;-38
2022/11/29 21:57:38;;;;;;;;;;;7.40;99.90;;;;;;12334306;28;20333;-36
2022/11/29 22:03:40;;;;;;;;;;;7.40;99.90;;;;;;12338330;28;19930;-37
2022/11/29 22:09:42;;;;;;;;;;;7.40;99.90;;;;;;12343141;28;20049;-36
2022/11/29 22:15:44;;;;;;;;;;;7.30;99.90;;;;;;12325096;28;19931;-36
2022/11/29 22:21:48;;;;;;;;;;;7.40;99.90;;;;;;12341344;28;20235;-37
2022/11/29 22:27:49;;;;;;;;;;;7.30;99.90;;;;;;12341592;28;19926;-37
2022/11/29 22:33:52;;;;;;;;;;;7.40;99.90;;;;;;12335917;28;19926;-37
2022/11/29 22:39:54;;;;;;;;;;;7.30;99.90;;;;;;12343658;28;20301;-36
2022/11/29 22:46:06;;;;;;;;;;;7.30;99.90;;;;;;12342159;28;19933;-37
2022/11/29 22:52:07;;;;;;;;;;;7.30;99.90;;;;;;12338401;28;20080;-36
2022/11/29 22:58:09;;;;;;;;;;;7.30;99.90;;;;;;12338268;28;19926;-36
2022/11/29 23:04:11;;;;;;;;;;;7.30;99.90;;;;;;12330369;28;19930;-37
2022/11/29 23:10:13;;;;;;;;;;;7.20;99.90;;;;;;12337985;28;19927;-37
2022/11/29 23:16:17;;;;;;;;;;;7.20;99.90;;;;;;12338833;28;19933;-37
2022/11/29 23:22:19;;;;;;;;;;;7.20;99.90;;;;;;12341757;28;20289;-36
2022/11/29 23:28:21;;;;;;;;;;;7.20;99.90;;;;;;12342335;28;20382;-37
2022/11/29 23:34:23;;;;;;;;;;;7.20;99.90;;;;;;12340912;28;19930;-37
2022/11/29 23:40:25;;;;;;;;;;;7.10;99.90;;;;;;12324641;28;19930;-36
2022/11/29 23:46:27;;;;;;;;;;;7.10;99.90;;;;;;12338103;28;19937;-37
2022/11/29 23:52:28;;;;;;;;;;;7.10;99.90;;;;;;12344161;28;20024;-36
2022/11/29 23:58:30;;;;;;;;;;;7.10;99.90;;;;;;12320336;28;19941;-37
